sensor_id;sensor_type;location;lat;lon;timestamp;P1;durP1;ratioP1;P2;durP2;ratioP2
52918;SDS011;38793;52.690;6.812;2023-11-19T00:01:08;44.53;;;24.97;;
52918;SDS011;38793;52.690;6.812;2023-11-19T00:03:33;40.67;;;24.07;;
52918;SDS011;38793;52.690;6.812;2023-11-19T00:06:00;46.92;;;25.08;;
52918;SDS011;38793;52.690;6.812;2023-11-19T00:10:52;45.78;;;22.77;;
52918;SDS011;38793;52.690;6.812;2023-11-19T00:13:17;41.67;;;23.73;;
52918;SDS011;38793;52.690;6.812;2023-11-19T00:15:43;47.13;;;23.40;;
52918;SDS011;38793;52.690;6.812;2023-11-19T00:18:10;36.92;;;23.08;;
52918;SDS011;38793;52.690;6.812;2023-11-19T00:20:35;49.27;;;25.43;;
52918;SDS011;38793;52.690;6.812;2023-11-19T00:23:01;43.43;;;24.70;;
52918;SDS011;38793;52.690;6.812;2023-11-19T00:25:27;50.50;;;28.52;;
52918;SDS011;38793;52.690;6.812;2023-11-19T00:27:53;56.33;;;29.50;;
52918;SDS011;38793;52.690;6.812;2023-11-19T00:30:19;49.72;;;27.23;;
52918;SDS011;38793;52.690;6.812;2023-11-19T00:32:44;50.83;;;28.50;;
52918;SDS011;38793;52.690;6.812;2023-11-19T00:35:10;59.40;;;30.33;;
52918;SDS011;38793;52.690;6.812;2023-11-19T00:37:36;49.30;;;28.83;;
52918;SDS011;38793;52.690;6.812;2023-11-19T00:40:02;49.70;;;31.48;;
52918;SDS011;38793;52.690;6.812;2023-11-19T00:42:30;51.72;;;28.55;;
52918;SDS011;38793;52.690;6.812;2023-11-19T00:44:56;56.05;;;30.48;;
52918;SDS011;38793;52.690;6.812;2023-11-19T00:47:21;49.25;;;28.63;;
52918;SDS011;38793;52.690;6.812;2023-11-19T00:49:47;47.13;;;27.50;;
52918;SDS011;38793;52.690;6.812;2023-11-19T00:52:18;47.17;;;27.58;;
52918;SDS011;38793;52.690;6.812;2023-11-19T00:54:44;45.85;;;28.15;;
52918;SDS011;38793;52.690;6.812;2023-11-19T00:57:10;43.83;;;25.33;;
52918;SDS011;38793;52.690;6.812;2023-11-19T00:59:35;41.03;;;24.95;;
52918;SDS011;38793;52.690;6.812;2023-11-19T01:02:01;42.43;;;26.97;;
52918;SDS011;38793;52.690;6.812;2023-11-19T01:04:37;46.17;;;27.30;;
52918;SDS011;38793;52.690;6.812;2023-11-19T01:07:03;42.30;;;26.52;;
52918;SDS011;38793;52.690;6.812;2023-11-19T01:09:30;47.47;;;27.42;;
52918;SDS011;38793;52.690;6.812;2023-11-19T01:11:59;50.90;;;28.40;;
52918;SDS011;38793;52.690;6.812;2023-11-19T01:14:26;55.60;;;29.25;;
52918;SDS011;38793;52.690;6.812;2023-11-19T01:16:52;57.00;;;31.15;;
52918;SDS011;38793;52.690;6.812;2023-11-19T01:19:19;59.35;;;30.48;;
52918;SDS011;38793;52.690;6.812;2023-11-19T01:21:47;59.78;;;32.58;;
52918;SDS011;38793;52.690;6.812;2023-11-19T01:24:13;51.63;;;30.00;;
52918;SDS011;38793;52.690;6.812;2023-11-19T01:29:10;58.60;;;31.55;;
52918;SDS011;38793;52.690;6.812;2023-11-19T01:31:38;62.25;;;32.35;;
52918;SDS011;38793;52.690;6.812;2023-11-19T01:34:08;54.90;;;31.55;;
52918;SDS011;38793;52.690;6.812;2023-11-19T01:36:34;62.50;;;33.10;;
52918;SDS011;38793;52.690;6.812;2023-11-19T01:38:59;61.38;;;31.23;;
52918;SDS011;38793;52.690;6.812;2023-11-19T01:41:25;61.70;;;32.80;;
52918;SDS011;38793;52.690;6.812;2023-11-19T01:43:51;60.65;;;33.15;;
52918;SDS011;38793;52.690;6.812;2023-11-19T01:46:16;68.45;;;33.58;;
52918;SDS011;38793;52.690;6.812;2023-11-19T01:48:43;56.53;;;32.47;;
52918;SDS011;38793;52.690;6.812;2023-11-19T01:51:10;70.18;;;31.23;;
52918;SDS011;38793;52.690;6.812;2023-11-19T01:53:37;62.58;;;32.33;;
52918;SDS011;38793;52.690;6.812;2023-11-19T01:56:08;61.47;;;32.60;;
52918;SDS011;38793;52.690;6.812;2023-11-19T01:58:36;64.63;;;30.25;;
52918;SDS011;38793;52.690;6.812;2023-11-19T02:01:04;64.30;;;31.08;;
52918;SDS011;38793;52.690;6.812;2023-11-19T02:03:32;57.65;;;29.73;;
52918;SDS011;38793;52.690;6.812;2023-11-19T02:05:58;58.72;;;29.73;;
52918;SDS011;38793;52.690;6.812;2023-11-19T02:08:27;58.92;;;28.20;;
52918;SDS011;38793;52.690;6.812;2023-11-19T02:10:54;57.00;;;29.35;;
52918;SDS011;38793;52.690;6.812;2023-11-19T02:13:23;59.65;;;30.05;;
52918;SDS011;38793;52.690;6.812;2023-11-19T02:15:52;56.05;;;28.77;;
52918;SDS011;38793;52.690;6.812;2023-11-19T02:18:24;54.78;;;29.27;;
52918;SDS011;38793;52.690;6.812;2023-11-19T02:23:20;47.80;;;25.70;;
52918;SDS011;38793;52.690;6.812;2023-11-19T02:25:47;52.95;;;24.58;;
52918;SDS011;38793;52.690;6.812;2023-11-19T02:28:18;51.15;;;24.10;;
52918;SDS011;38793;52.690;6.812;2023-11-19T02:30:44;59.42;;;25.85;;
52918;SDS011;38793;52.690;6.812;2023-11-19T02:33:10;55.47;;;24.20;;
52918;SDS011;38793;52.690;6.812;2023-11-19T02:35:35;45.13;;;18.33;;
52918;SDS011;38793;52.690;6.812;2023-11-19T02:38:01;44.47;;;16.17;;
52918;SDS011;38793;52.690;6.812;2023-11-19T02:40:28;46.88;;;13.90;;
52918;SDS011;38793;52.690;6.812;2023-11-19T02:42:54;32.58;;;12.85;;
52918;SDS011;38793;52.690;6.812;2023-11-19T02:45:22;43.50;;;12.00;;
52918;SDS011;38793;52.690;6.812;2023-11-19T02:47:48;33.25;;;11.38;;
52918;SDS011;38793;52.690;6.812;2023-11-19T02:50:13;31.73;;;10.77;;
52918;SDS011;38793;52.690;6.812;2023-11-19T02:52:40;31.63;;;9.07;;
52918;SDS011;38793;52.690;6.812;2023-11-19T02:55:06;41.15;;;8.95;;
52918;SDS011;38793;52.690;6.812;2023-11-19T02:57:35;36.67;;;8.85;;
52918;SDS011;38793;52.690;6.812;2023-11-19T03:00:01;35.45;;;8.80;;
52918;SDS011;38793;52.690;6.812;2023-11-19T03:02:36;34.58;;;8.65;;
52918;SDS011;38793;52.690;6.812;2023-11-19T03:05:10;32.28;;;9.07;;
52918;SDS011;38793;52.690;6.812;2023-11-19T03:07:37;35.45;;;9.63;;
52918;SDS011;38793;52.690;6.812;2023-11-19T03:10:02;29.63;;;7.25;;
52918;SDS011;38793;52.690;6.812;2023-11-19T03:12:30;41.55;;;8.65;;
52918;SDS011;38793;52.690;6.812;2023-11-19T03:14:56;31.92;;;6.82;;
52918;SDS011;38793;52.690;6.812;2023-11-19T03:17:22;38.53;;;6.57;;
52918;SDS011;38793;52.690;6.812;2023-11-19T03:19:49;38.58;;;7.68;;
52918;SDS011;38793;52.690;6.812;2023-11-19T03:22:14;33.38;;;6.95;;
52918;SDS011;38793;52.690;6.812;2023-11-19T03:24:40;30.13;;;7.00;;
52918;SDS011;38793;52.690;6.812;2023-11-19T03:27:06;37.80;;;6.55;;
52918;SDS011;38793;52.690;6.812;2023-11-19T03:29:32;37.25;;;6.60;;
52918;SDS011;38793;52.690;6.812;2023-11-19T03:31:57;34.70;;;6.33;;
52918;SDS011;38793;52.690;6.812;2023-11-19T03:34:23;33.50;;;6.75;;
52918;SDS011;38793;52.690;6.812;2023-11-19T03:36:48;39.53;;;6.83;;
52918;SDS011;38793;52.690;6.812;2023-11-19T03:39:14;40.37;;;7.27;;
52918;SDS011;38793;52.690;6.812;2023-11-19T03:41:40;37.42;;;7.60;;
52918;SDS011;38793;52.690;6.812;2023-11-19T03:44:06;30.57;;;6.23;;
52918;SDS011;38793;52.690;6.812;2023-11-19T03:46:31;33.67;;;7.78;;
52918;SDS011;38793;52.690;6.812;2023-11-19T03:48:57;37.10;;;6.97;;
52918;SDS011;38793;52.690;6.812;2023-11-19T03:51:23;39.97;;;7.00;;
52918;SDS011;38793;52.690;6.812;2023-11-19T03:53:48;34.60;;;6.70;;
52918;SDS011;38793;52.690;6.812;2023-11-19T03:56:14;38.15;;;7.35;;
52918;SDS011;38793;52.690;6.812;2023-11-19T03:58:39;34.05;;;6.40;;
52918;SDS011;38793;52.690;6.812;2023-11-19T04:01:05;40.78;;;6.82;;
52918;SDS011;38793;52.690;6.812;2023-11-19T04:03:35;39.28;;;6.93;;
52918;SDS011;38793;52.690;6.812;2023-11-19T04:06:01;33.35;;;7.03;;
52918;SDS011;38793;52.690;6.812;2023-11-19T04:08:27;38.38;;;7.10;;
52918;SDS011;38793;52.690;6.812;2023-11-19T04:10:53;40.00;;;8.38;;
52918;SDS011;38793;52.690;6.812;2023-11-19T04:13:18;32.55;;;7.03;;
52918;SDS011;38793;52.690;6.812;2023-11-19T04:15:45;35.08;;;6.72;;
52918;SDS011;38793;52.690;6.812;2023-11-19T04:18:10;39.80;;;7.80;;
52918;SDS011;38793;52.690;6.812;2023-11-19T04:20:36;36.42;;;6.75;;
52918;SDS011;38793;52.690;6.812;2023-11-19T04:23:02;42.13;;;6.28;;
52918;SDS011;38793;52.690;6.812;2023-11-19T04:25:27;45.67;;;8.20;;
52918;SDS011;38793;52.690;6.812;2023-11-19T04:27:53;41.33;;;8.05;;
52918;SDS011;38793;52.690;6.812;2023-11-19T04:30:19;36.75;;;6.88;;
52918;SDS011;38793;52.690;6.812;2023-11-19T04:32:45;35.28;;;6.78;;
52918;SDS011;38793;52.690;6.812;2023-11-19T04:35:10;44.30;;;7.97;;
52918;SDS011;38793;52.690;6.812;2023-11-19T04:37:36;38.60;;;7.00;;
52918;SDS011;38793;52.690;6.812;2023-11-19T04:42:28;42.03;;;8.60;;
52918;SDS011;38793;52.690;6.812;2023-11-19T04:44:54;35.60;;;7.07;;
52918;SDS011;38793;52.690;6.812;2023-11-19T04:47:20;36.35;;;7.57;;
52918;SDS011;38793;52.690;6.812;2023-11-19T04:49:46;43.80;;;7.80;;
52918;SDS011;38793;52.690;6.812;2023-11-19T04:52:12;44.77;;;8.17;;
52918;SDS011;38793;52.690;6.812;2023-11-19T04:54:41;43.47;;;8.25;;
52918;SDS011;38793;52.690;6.812;2023-11-19T04:57:08;46.08;;;7.38;;
52918;SDS011;38793;52.690;6.812;2023-11-19T04:59:36;48.13;;;7.55;;
52918;SDS011;38793;52.690;6.812;2023-11-19T05:02:01;42.70;;;8.10;;
52918;SDS011;38793;52.690;6.812;2023-11-19T05:04:29;41.25;;;7.68;;
52918;SDS011;38793;52.690;6.812;2023-11-19T05:06:54;45.17;;;8.45;;
52918;SDS011;38793;52.690;6.812;2023-11-19T05:09:20;38.92;;;8.00;;
52918;SDS011;38793;52.690;6.812;2023-11-19T05:11:46;35.78;;;6.80;;
52918;SDS011;38793;52.690;6.812;2023-11-19T05:14:11;48.33;;;9.20;;
52918;SDS011;38793;52.690;6.812;2023-11-19T05:16:39;36.63;;;6.80;;
52918;SDS011;38793;52.690;6.812;2023-11-19T05:19:05;43.60;;;8.48;;
52918;SDS011;38793;52.690;6.812;2023-11-19T05:21:31;38.58;;;8.60;;
52918;SDS011;38793;52.690;6.812;2023-11-19T05:23:57;48.03;;;8.10;;
52918;SDS011;38793;52.690;6.812;2023-11-19T05:26:22;55.00;;;8.13;;
52918;SDS011;38793;52.690;6.812;2023-11-19T05:28:49;56.95;;;9.20;;
52918;SDS011;38793;52.690;6.812;2023-11-19T05:31:16;46.13;;;9.20;;
52918;SDS011;38793;52.690;6.812;2023-11-19T05:33:42;52.40;;;9.88;;
52918;SDS011;38793;52.690;6.812;2023-11-19T05:36:08;46.25;;;9.45;;
52918;SDS011;38793;52.690;6.812;2023-11-19T05:38:35;46.83;;;8.55;;
52918;SDS011;38793;52.690;6.812;2023-11-19T05:41:02;51.65;;;8.00;;
52918;SDS011;38793;52.690;6.812;2023-11-19T05:45:53;48.00;;;8.52;;
52918;SDS011;38793;52.690;6.812;2023-11-19T05:48:19;48.10;;;8.30;;
52918;SDS011;38793;52.690;6.812;2023-11-19T05:50:45;46.88;;;8.63;;
52918;SDS011;38793;52.690;6.812;2023-11-19T05:53:11;46.17;;;9.27;;
52918;SDS011;38793;52.690;6.812;2023-11-19T05:55:39;50.65;;;8.98;;
52918;SDS011;38793;52.690;6.812;2023-11-19T05:58:11;46.42;;;8.07;;
52918;SDS011;38793;52.690;6.812;2023-11-19T06:00:38;45.70;;;8.18;;
52918;SDS011;38793;52.690;6.812;2023-11-19T06:03:05;33.38;;;7.00;;
52918;SDS011;38793;52.690;6.812;2023-11-19T06:05:31;44.88;;;8.70;;
52918;SDS011;38793;52.690;6.812;2023-11-19T06:07:57;41.15;;;8.05;;
52918;SDS011;38793;52.690;6.812;2023-11-19T06:10:23;50.88;;;10.43;;
52918;SDS011;38793;52.690;6.812;2023-11-19T06:12:54;42.03;;;7.63;;
52918;SDS011;38793;52.690;6.812;2023-11-19T06:15:22;44.83;;;8.80;;
52918;SDS011;38793;52.690;6.812;2023-11-19T06:17:47;34.85;;;6.60;;
52918;SDS011;38793;52.690;6.812;2023-11-19T06:20:13;42.38;;;8.70;;
52918;SDS011;38793;52.690;6.812;2023-11-19T06:22:39;45.70;;;9.20;;
52918;SDS011;38793;52.690;6.812;2023-11-19T06:25:07;48.45;;;8.93;;
52918;SDS011;38793;52.690;6.812;2023-11-19T06:27:33;46.05;;;8.90;;
52918;SDS011;38793;52.690;6.812;2023-11-19T06:29:59;46.00;;;7.82;;
52918;SDS011;38793;52.690;6.812;2023-11-19T06:32:25;49.72;;;8.75;;
52918;SDS011;38793;52.690;6.812;2023-11-19T06:34:51;50.80;;;8.68;;
52918;SDS011;38793;52.690;6.812;2023-11-19T06:37:16;48.50;;;8.70;;
52918;SDS011;38793;52.690;6.812;2023-11-19T06:39:42;41.67;;;10.05;;
52918;SDS011;38793;52.690;6.812;2023-11-19T06:42:08;52.50;;;9.70;;
52918;SDS011;38793;52.690;6.812;2023-11-19T06:44:33;33.57;;;7.77;;
52918;SDS011;38793;52.690;6.812;2023-11-19T06:46:59;48.92;;;8.43;;
52918;SDS011;38793;52.690;6.812;2023-11-19T06:49:25;39.13;;;7.80;;
52918;SDS011;38793;52.690;6.812;2023-11-19T06:51:50;54.53;;;7.77;;
52918;SDS011;38793;52.690;6.812;2023-11-19T06:54:16;46.80;;;7.88;;
52918;SDS011;38793;52.690;6.812;2023-11-19T06:56:42;47.03;;;7.93;;
52918;SDS011;38793;52.690;6.812;2023-11-19T06:59:08;35.63;;;7.53;;
52918;SDS011;38793;52.690;6.812;2023-11-19T07:01:35;50.45;;;9.73;;
52918;SDS011;38793;52.690;6.812;2023-11-19T07:04:01;39.75;;;6.80;;
52918;SDS011;38793;52.690;6.812;2023-11-19T07:06:33;56.30;;;9.68;;
52918;SDS011;38793;52.690;6.812;2023-11-19T07:11:27;50.00;;;8.57;;
52918;SDS011;38793;52.690;6.812;2023-11-19T07:13:54;52.20;;;7.30;;
52918;SDS011;38793;52.690;6.812;2023-11-19T07:16:19;49.93;;;9.80;;
52918;SDS011;38793;52.690;6.812;2023-11-19T07:18:47;41.65;;;8.00;;
52918;SDS011;38793;52.690;6.812;2023-11-19T07:21:15;44.47;;;8.82;;
52918;SDS011;38793;52.690;6.812;2023-11-19T07:23:40;41.03;;;8.33;;
52918;SDS011;38793;52.690;6.812;2023-11-19T07:26:06;46.60;;;8.55;;
52918;SDS011;38793;52.690;6.812;2023-11-19T07:28:33;51.30;;;8.48;;
52918;SDS011;38793;52.690;6.812;2023-11-19T07:30:59;47.30;;;9.23;;
52918;SDS011;38793;52.690;6.812;2023-11-19T07:33:25;50.60;;;8.77;;
52918;SDS011;38793;52.690;6.812;2023-11-19T07:35:50;52.83;;;9.37;;
52918;SDS011;38793;52.690;6.812;2023-11-19T07:38:16;47.42;;;7.65;;
52918;SDS011;38793;52.690;6.812;2023-11-19T07:40:42;43.33;;;8.30;;
52918;SDS011;38793;52.690;6.812;2023-11-19T07:43:08;45.33;;;7.80;;
52918;SDS011;38793;52.690;6.812;2023-11-19T07:45:34;43.55;;;7.80;;
52918;SDS011;38793;52.690;6.812;2023-11-19T07:47:59;52.45;;;9.70;;
52918;SDS011;38793;52.690;6.812;2023-11-19T07:50:26;45.83;;;9.13;;
52918;SDS011;38793;52.690;6.812;2023-11-19T07:52:52;49.00;;;7.95;;
52918;SDS011;38793;52.690;6.812;2023-11-19T07:55:18;55.90;;;8.35;;
52918;SDS011;38793;52.690;6.812;2023-11-19T07:57:44;49.25;;;10.23;;
52918;SDS011;38793;52.690;6.812;2023-11-19T08:00:10;47.67;;;8.10;;
52918;SDS011;38793;52.690;6.812;2023-11-19T08:02:39;51.05;;;8.23;;
52918;SDS011;38793;52.690;6.812;2023-11-19T08:05:05;42.83;;;7.15;;
52918;SDS011;38793;52.690;6.812;2023-11-19T08:07:31;38.05;;;7.70;;
52918;SDS011;38793;52.690;6.812;2023-11-19T08:09:57;38.63;;;8.77;;
52918;SDS011;38793;52.690;6.812;2023-11-19T08:12:22;46.78;;;8.30;;
52918;SDS011;38793;52.690;6.812;2023-11-19T08:14:48;33.70;;;6.88;;
52918;SDS011;38793;52.690;6.812;2023-11-19T08:17:14;44.08;;;8.07;;
52918;SDS011;38793;52.690;6.812;2023-11-19T08:19:41;61.17;;;9.05;;
52918;SDS011;38793;52.690;6.812;2023-11-19T08:22:06;39.00;;;7.23;;
52918;SDS011;38793;52.690;6.812;2023-11-19T08:24:34;39.42;;;9.40;;
52918;SDS011;38793;52.690;6.812;2023-11-19T08:27:00;43.25;;;7.22;;
52918;SDS011;38793;52.690;6.812;2023-11-19T08:29:25;44.50;;;6.85;;
52918;SDS011;38793;52.690;6.812;2023-11-19T08:31:52;34.20;;;7.63;;
52918;SDS011;38793;52.690;6.812;2023-11-19T08:34:18;35.75;;;7.55;;
52918;SDS011;38793;52.690;6.812;2023-11-19T08:36:43;56.65;;;8.95;;
52918;SDS011;38793;52.690;6.812;2023-11-19T08:39:09;53.92;;;8.10;;
52918;SDS011;38793;52.690;6.812;2023-11-19T08:41:35;53.33;;;9.10;;
52918;SDS011;38793;52.690;6.812;2023-11-19T08:44:03;42.28;;;7.78;;
52918;SDS011;38793;52.690;6.812;2023-11-19T08:46:29;45.80;;;8.00;;
52918;SDS011;38793;52.690;6.812;2023-11-19T08:48:54;45.07;;;9.63;;
52918;SDS011;38793;52.690;6.812;2023-11-19T08:51:22;51.47;;;10.50;;
52918;SDS011;38793;52.690;6.812;2023-11-19T08:53:49;49.47;;;7.80;;
52918;SDS011;38793;52.690;6.812;2023-11-19T08:56:15;45.70;;;9.30;;
52918;SDS011;38793;52.690;6.812;2023-11-19T08:58:40;35.63;;;7.32;;
52918;SDS011;38793;52.690;6.812;2023-11-19T09:01:06;51.60;;;9.37;;
52918;SDS011;38793;52.690;6.812;2023-11-19T09:03:32;49.37;;;8.60;;
52918;SDS011;38793;52.690;6.812;2023-11-19T09:05:57;58.53;;;8.82;;
52918;SDS011;38793;52.690;6.812;2023-11-19T09:08:23;47.93;;;8.43;;
52918;SDS011;38793;52.690;6.812;2023-11-19T09:10:49;46.90;;;8.20;;
52918;SDS011;38793;52.690;6.812;2023-11-19T09:13:14;34.67;;;6.63;;
52918;SDS011;38793;52.690;6.812;2023-11-19T09:15:40;63.80;;;9.60;;
52918;SDS011;38793;52.690;6.812;2023-11-19T09:18:07;42.55;;;8.50;;
52918;SDS011;38793;52.690;6.812;2023-11-19T09:20:32;59.13;;;9.27;;
52918;SDS011;38793;52.690;6.812;2023-11-19T09:23:03;49.08;;;9.07;;
52918;SDS011;38793;52.690;6.812;2023-11-19T09:25:30;52.42;;;8.05;;
52918;SDS011;38793;52.690;6.812;2023-11-19T09:27:55;43.85;;;8.23;;
52918;SDS011;38793;52.690;6.812;2023-11-19T09:30:21;39.67;;;8.07;;
52918;SDS011;38793;52.690;6.812;2023-11-19T09:32:47;47.05;;;8.13;;
52918;SDS011;38793;52.690;6.812;2023-11-19T09:35:13;46.25;;;8.07;;
52918;SDS011;38793;52.690;6.812;2023-11-19T09:37:40;43.40;;;7.93;;
52918;SDS011;38793;52.690;6.812;2023-11-19T09:40:05;47.05;;;8.55;;
52918;SDS011;38793;52.690;6.812;2023-11-19T09:42:36;44.65;;;8.30;;
52918;SDS011;38793;52.690;6.812;2023-11-19T09:45:14;42.38;;;7.65;;
52918;SDS011;38793;52.690;6.812;2023-11-19T09:47:43;46.38;;;9.05;;
52918;SDS011;38793;52.690;6.812;2023-11-19T09:50:16;47.53;;;7.47;;
52918;SDS011;38793;52.690;6.812;2023-11-19T09:52:46;40.95;;;6.85;;
52918;SDS011;38793;52.690;6.812;2023-11-19T09:55:12;48.47;;;8.68;;
52918;SDS011;38793;52.690;6.812;2023-11-19T09:57:39;45.03;;;7.53;;
52918;SDS011;38793;52.690;6.812;2023-11-19T10:00:07;43.22;;;9.07;;
52918;SDS011;38793;52.690;6.812;2023-11-19T10:05:00;42.55;;;7.45;;
52918;SDS011;38793;52.690;6.812;2023-11-19T10:07:31;33.72;;;6.32;;
52918;SDS011;38793;52.690;6.812;2023-11-19T10:10:02;50.70;;;7.95;;
52918;SDS011;38793;52.690;6.812;2023-11-19T10:12:32;36.30;;;7.63;;
52918;SDS011;38793;52.690;6.812;2023-11-19T10:14:58;34.10;;;6.22;;
52918;SDS011;38793;52.690;6.812;2023-11-19T10:19:54;48.47;;;8.20;;
52918;SDS011;38793;52.690;6.812;2023-11-19T10:22:21;47.70;;;9.32;;
52918;SDS011;38793;52.690;6.812;2023-11-19T10:24:49;42.50;;;7.35;;
52918;SDS011;38793;52.690;6.812;2023-11-19T10:27:15;37.90;;;6.95;;
52918;SDS011;38793;52.690;6.812;2023-11-19T10:29:42;40.90;;;7.10;;
52918;SDS011;38793;52.690;6.812;2023-11-19T10:32:12;43.45;;;7.18;;
52918;SDS011;38793;52.690;6.812;2023-11-19T10:34:39;37.08;;;8.02;;
52918;SDS011;38793;52.690;6.812;2023-11-19T10:37:06;48.13;;;7.63;;
52918;SDS011;38793;52.690;6.812;2023-11-19T10:39:51;37.33;;;7.45;;
52918;SDS011;38793;52.690;6.812;2023-11-19T10:42:20;38.67;;;6.75;;
52918;SDS011;38793;52.690;6.812;2023-11-19T10:44:46;41.63;;;8.52;;
52918;SDS011;38793;52.690;6.812;2023-11-19T10:47:12;39.50;;;7.25;;
52918;SDS011;38793;52.690;6.812;2023-11-19T10:49:39;41.05;;;7.88;;
52918;SDS011;38793;52.690;6.812;2023-11-19T10:52:05;35.75;;;7.90;;
52918;SDS011;38793;52.690;6.812;2023-11-19T10:54:33;37.13;;;7.10;;
52918;SDS011;38793;52.690;6.812;2023-11-19T10:56:59;33.95;;;6.95;;
52918;SDS011;38793;52.690;6.812;2023-11-19T10:59:30;43.42;;;8.20;;
52918;SDS011;38793;52.690;6.812;2023-11-19T11:01:59;45.20;;;7.93;;
52918;SDS011;38793;52.690;6.812;2023-11-19T11:04:30;40.50;;;7.15;;
52918;SDS011;38793;52.690;6.812;2023-11-19T11:07:00;40.67;;;7.72;;
52918;SDS011;38793;52.690;6.812;2023-11-19T11:09:27;46.25;;;7.43;;
52918;SDS011;38793;52.690;6.812;2023-11-19T11:11:53;36.53;;;7.63;;
52918;SDS011;38793;52.690;6.812;2023-11-19T11:14:20;43.00;;;7.00;;
52918;SDS011;38793;52.690;6.812;2023-11-19T11:54:09;38.05;;;7.43;;
52918;SDS011;38793;52.690;6.812;2023-11-19T11:56:38;38.63;;;6.38;;
52918;SDS011;38793;52.690;6.812;2023-11-19T11:59:07;39.65;;;6.85;;
52918;SDS011;38793;52.690;6.812;2023-11-19T12:01:58;38.35;;;6.43;;
52918;SDS011;38793;52.690;6.812;2023-11-19T12:04:27;42.63;;;7.53;;
52918;SDS011;38793;52.690;6.812;2023-11-19T12:07:06;45.55;;;6.35;;
52918;SDS011;38793;52.690;6.812;2023-11-19T12:09:42;27.70;;;5.65;;
52918;SDS011;38793;52.690;6.812;2023-11-19T12:20:05;58.70;;;7.82;;
52918;SDS011;38793;52.690;6.812;2023-11-19T12:22:37;40.22;;;6.65;;
52918;SDS011;38793;52.690;6.812;2023-11-19T12:25:04;44.35;;;6.90;;
52918;SDS011;38793;52.690;6.812;2023-11-19T12:27:31;44.70;;;8.48;;
52918;SDS011;38793;52.690;6.812;2023-11-19T12:29:59;34.92;;;6.30;;
52918;SDS011;38793;52.690;6.812;2023-11-19T12:32:25;39.10;;;7.85;;
52918;SDS011;38793;52.690;6.812;2023-11-19T12:34:50;32.38;;;7.07;;
52918;SDS011;38793;52.690;6.812;2023-11-19T12:37:16;37.58;;;7.00;;
52918;SDS011;38793;52.690;6.812;2023-11-19T12:39:42;42.25;;;8.30;;
52918;SDS011;38793;52.690;6.812;2023-11-19T14:39:58;30.65;;;5.13;;
52918;SDS011;38793;52.690;6.812;2023-11-19T14:44:50;32.38;;;4.35;;
52918;SDS011;38793;52.690;6.812;2023-11-19T14:47:20;23.70;;;5.28;;
52918;SDS011;38793;52.690;6.812;2023-11-19T14:49:46;34.65;;;5.68;;
52918;SDS011;38793;52.690;6.812;2023-11-19T14:52:12;35.10;;;5.60;;
52918;SDS011;38793;52.690;6.812;2023-11-19T14:54:38;31.17;;;5.53;;
52918;SDS011;38793;52.690;6.812;2023-11-19T14:57:04;26.03;;;5.93;;
52918;SDS011;38793;52.690;6.812;2023-11-19T14:59:31;31.90;;;5.40;;
52918;SDS011;38793;52.690;6.812;2023-11-19T15:04:23;32.00;;;6.05;;
52918;SDS011;38793;52.690;6.812;2023-11-19T15:10:35;25.65;;;4.68;;
52918;SDS011;38793;52.690;6.812;2023-11-19T15:13:00;37.20;;;6.60;;
52918;SDS011;38793;52.690;6.812;2023-11-19T15:15:26;25.07;;;4.53;;
52918;SDS011;38793;52.690;6.812;2023-11-19T15:17:51;26.90;;;5.00;;
52918;SDS011;38793;52.690;6.812;2023-11-19T15:20:17;30.63;;;4.67;;
52918;SDS011;38793;52.690;6.812;2023-11-19T15:22:43;28.65;;;4.30;;
52918;SDS011;38793;52.690;6.812;2023-11-19T15:25:09;31.87;;;6.00;;
52918;SDS011;38793;52.690;6.812;2023-11-19T15:27:35;32.97;;;5.68;;
52918;SDS011;38793;52.690;6.812;2023-11-19T15:30:01;31.92;;;6.20;;
52918;SDS011;38793;52.690;6.812;2023-11-19T15:32:28;33.38;;;5.53;;
52918;SDS011;38793;52.690;6.812;2023-11-19T15:34:56;29.70;;;5.82;;
52918;SDS011;38793;52.690;6.812;2023-11-19T15:37:22;26.67;;;5.90;;
52918;SDS011;38793;52.690;6.812;2023-11-19T15:39:48;31.75;;;5.10;;
52918;SDS011;38793;52.690;6.812;2023-11-19T15:42:16;31.38;;;5.88;;
52918;SDS011;38793;52.690;6.812;2023-11-19T15:44:42;30.38;;;4.75;;
52918;SDS011;38793;52.690;6.812;2023-11-19T15:47:08;23.98;;;5.40;;
52918;SDS011;38793;52.690;6.812;2023-11-19T15:49:34;26.02;;;4.93;;
52918;SDS011;38793;52.690;6.812;2023-11-19T15:52:00;28.80;;;6.45;;
52918;SDS011;38793;52.690;6.812;2023-11-19T15:54:26;30.85;;;5.35;;
52918;SDS011;38793;52.690;6.812;2023-11-19T15:56:52;27.98;;;5.13;;
52918;SDS011;38793;52.690;6.812;2023-11-19T15:59:17;35.03;;;6.15;;
52918;SDS011;38793;52.690;6.812;2023-11-19T16:01:43;33.55;;;6.38;;
52918;SDS011;38793;52.690;6.812;2023-11-19T16:04:08;28.80;;;4.73;;
52918;SDS011;38793;52.690;6.812;2023-11-19T16:06:34;29.30;;;5.93;;
52918;SDS011;38793;52.690;6.812;2023-11-19T16:09:00;30.10;;;5.20;;
52918;SDS011;38793;52.690;6.812;2023-11-19T16:11:27;40.47;;;5.13;;
52918;SDS011;38793;52.690;6.812;2023-11-19T16:13:52;38.17;;;5.60;;
52918;SDS011;38793;52.690;6.812;2023-11-19T16:16:18;31.83;;;5.72;;
52918;SDS011;38793;52.690;6.812;2023-11-19T16:18:44;32.05;;;5.25;;
52918;SDS011;38793;52.690;6.812;2023-11-19T16:21:09;38.53;;;6.07;;
52918;SDS011;38793;52.690;6.812;2023-11-19T16:23:35;41.63;;;6.43;;
52918;SDS011;38793;52.690;6.812;2023-11-19T16:26:01;28.87;;;4.73;;
52918;SDS011;38793;52.690;6.812;2023-11-19T16:28:26;32.17;;;5.65;;
52918;SDS011;38793;52.690;6.812;2023-11-19T16:30:52;42.27;;;7.83;;
52918;SDS011;38793;52.690;6.812;2023-11-19T16:33:17;34.40;;;6.43;;
52918;SDS011;38793;52.690;6.812;2023-11-19T16:35:43;37.97;;;5.70;;
52918;SDS011;38793;52.690;6.812;2023-11-19T16:38:08;37.13;;;5.78;;
52918;SDS011;38793;52.690;6.812;2023-11-19T16:40:34;33.13;;;6.43;;
52918;SDS011;38793;52.690;6.812;2023-11-19T16:43:04;36.67;;;6.18;;
52918;SDS011;38793;52.690;6.812;2023-11-19T16:45:31;36.92;;;6.57;;
52918;SDS011;38793;52.690;6.812;2023-11-19T16:47:57;46.35;;;5.60;;
52918;SDS011;38793;52.690;6.812;2023-11-19T16:50:23;34.80;;;6.63;;
52918;SDS011;38793;52.690;6.812;2023-11-19T16:52:48;32.00;;;5.73;;
52918;SDS011;38793;52.690;6.812;2023-11-19T16:55:14;22.80;;;4.73;;
52918;SDS011;38793;52.690;6.812;2023-11-19T16:57:41;39.95;;;6.43;;
52918;SDS011;38793;52.690;6.812;2023-11-19T17:00:09;36.28;;;6.18;;
52918;SDS011;38793;52.690;6.812;2023-11-19T17:02:36;36.05;;;6.57;;
52918;SDS011;38793;52.690;6.812;2023-11-19T17:05:10;33.55;;;6.57;;
52918;SDS011;38793;52.690;6.812;2023-11-19T17:07:36;34.97;;;6.38;;
52918;SDS011;38793;52.690;6.812;2023-11-19T17:10:02;36.55;;;5.80;;
52918;SDS011;38793;52.690;6.812;2023-11-19T17:12:29;40.17;;;6.85;;
52918;SDS011;38793;52.690;6.812;2023-11-19T17:14:55;36.25;;;6.20;;
52918;SDS011;38793;52.690;6.812;2023-11-19T17:17:37;34.20;;;6.38;;
52918;SDS011;38793;52.690;6.812;2023-11-19T17:20:03;37.10;;;6.50;;
52918;SDS011;38793;52.690;6.812;2023-11-19T17:22:31;33.55;;;6.43;;
52918;SDS011;38793;52.690;6.812;2023-11-19T17:25:01;39.40;;;6.60;;
52918;SDS011;38793;52.690;6.812;2023-11-19T17:27:28;38.25;;;7.07;;
52918;SDS011;38793;52.690;6.812;2023-11-19T17:29:55;46.35;;;7.85;;
52918;SDS011;38793;52.690;6.812;2023-11-19T17:32:21;44.28;;;7.40;;
52918;SDS011;38793;52.690;6.812;2023-11-19T17:34:47;44.70;;;6.68;;
52918;SDS011;38793;52.690;6.812;2023-11-19T17:37:13;45.47;;;6.85;;
52918;SDS011;38793;52.690;6.812;2023-11-19T17:39:38;45.27;;;7.80;;